sensor_id;sensor_type;location;lat;lon;timestamp;pressure;altitude;pressure_sealevel;temperature
50496;BMP280;38806;51.554;5.704;2022-08-02T00:00:37;101694.66;;;11.71
50496;BMP280;38806;51.554;5.704;2022-08-02T00:02:37;101741.88;;;11.66
50496;BMP280;38806;51.554;5.704;2022-08-02T00:04:38;101794.50;;;11.52
50496;BMP280;38806;51.554;5.704;2022-08-02T00:06:38;101801.88;;;11.43
50496;BMP280;38806;51.554;5.704;2022-08-02T00:08:38;101803.28;;;11.38
50496;BMP280;38806;51.554;5.704;2022-08-02T00:10:39;101784.44;;;11.38
50496;BMP280;38806;51.554;5.704;2022-08-02T00:12:39;101742.34;;;11.41
50496;BMP280;38806;51.554;5.704;2022-08-02T00:14:39;101737.44;;;11.39
50496;BMP280;38806;51.554;5.704;2022-08-02T00:16:39;101693.03;;;11.49
50496;BMP280;38806;51.554;5.704;2022-08-02T00:18:40;101713.28;;;11.45
50496;BMP280;38806;51.554;5.704;2022-08-02T00:20:40;101720.78;;;11.41
50496;BMP280;38806;51.554;5.704;2022-08-02T00:22:40;101729.78;;;11.38
50496;BMP280;38806;51.554;5.704;2022-08-02T00:24:40;101750.75;;;11.33
50496;BMP280;38806;51.554;5.704;2022-08-02T00:26:41;101777.75;;;11.24
50496;BMP280;38806;51.554;5.704;2022-08-02T00:28:41;101807.72;;;11.17
50496;BMP280;38806;51.554;5.704;2022-08-02T00:30:41;101799.63;;;11.17
50496;BMP280;38806;51.554;5.704;2022-08-02T00:32:42;101811.78;;;11.13
50496;BMP280;38806;51.554;5.704;2022-08-02T00:34:42;101792.47;;;11.14
50496;BMP280;38806;51.554;5.704;2022-08-02T00:36:42;101780.31;;;11.19
50496;BMP280;38806;51.554;5.704;2022-08-02T00:38:43;101751.56;;;11.25
50496;BMP280;38806;51.554;5.704;2022-08-02T00:40:51;101748.59;;;11.23
50496;BMP280;38806;51.554;5.704;2022-08-02T00:43:09;101743.66;;;11.21
50496;BMP280;38806;51.554;5.704;2022-08-02T00:45:09;101743.66;;;11.21
50496;BMP280;38806;51.554;5.704;2022-08-02T00:47:10;101748.19;;;11.15
50496;BMP280;38806;51.554;5.704;2022-08-02T00:49:11;101757.16;;;11.12
50496;BMP280;38806;51.554;5.704;2022-08-02T00:51:12;101739.16;;;11.18
50496;BMP280;38806;51.554;5.704;2022-08-02T00:53:12;101742.50;;;11.13
50496;BMP280;38806;51.554;5.704;2022-08-02T00:55:12;101744.44;;;11.13
50496;BMP280;38806;51.554;5.704;2022-08-02T00:57:13;101728.69;;;11.20
50496;BMP280;38806;51.554;5.704;2022-08-02T00:59:13;101767.94;;;11.12
50496;BMP280;38806;51.554;5.704;2022-08-02T01:01:14;101779.34;;;11.07
50496;BMP280;38806;51.554;5.704;2022-08-02T01:03:14;101800.00;;;11.01
50496;BMP280;38806;51.554;5.704;2022-08-02T01:05:15;101816.75;;;10.96
50496;BMP280;38806;51.554;5.704;2022-08-02T01:07:15;101831.13;;;10.93
50496;BMP280;38806;51.554;5.704;2022-08-02T01:09:15;101859.13;;;10.86
50496;BMP280;38806;51.554;5.704;2022-08-02T01:11:16;101868.09;;;10.83
50496;BMP280;38806;51.554;5.704;2022-08-02T01:13:16;101874.81;;;10.79
50496;BMP280;38806;51.554;5.704;2022-08-02T01:15:17;101878.84;;;10.74
50496;BMP280;38806;51.554;5.704;2022-08-02T01:21:53;101853.44;;;10.66
50496;BMP280;38806;51.554;5.704;2022-08-02T01:24:32;101852.41;;;10.63
50496;BMP280;38806;51.554;5.704;2022-08-02T01:26:54;101873.03;;;10.57
50496;BMP280;38806;51.554;5.704;2022-08-02T01:28:57;101877.09;;;10.53
50496;BMP280;38806;51.554;5.704;2022-08-02T01:33:22;101873.38;;;10.50
50496;BMP280;38806;51.554;5.704;2022-08-02T01:35:31;101898.00;;;10.49
50496;BMP280;38806;51.554;5.704;2022-08-02T01:37:50;101911.63;;;10.45
50496;BMP280;38806;51.554;5.704;2022-08-02T01:39:55;101894.13;;;10.50
50496;BMP280;38806;51.554;5.704;2022-08-02T01:41:57;101869.16;;;10.49
50496;BMP280;38806;51.554;5.704;2022-08-02T01:44:00;101840.19;;;10.53
50496;BMP280;38806;51.554;5.704;2022-08-02T01:46:02;101836.00;;;10.52
50496;BMP280;38806;51.554;5.704;2022-08-02T01:48:04;101835.53;;;10.54
50496;BMP280;38806;51.554;5.704;2022-08-02T01:50:07;101803.97;;;10.63
50496;BMP280;38806;51.554;5.704;2022-08-02T01:52:12;101784.56;;;10.68
50496;BMP280;38806;51.554;5.704;2022-08-02T01:54:24;101789.94;;;10.68
50496;BMP280;38806;51.554;5.704;2022-08-02T01:56:25;101806.09;;;10.68
50496;BMP280;38806;51.554;5.704;2022-08-02T01:58:28;101825.34;;;10.67
50496;BMP280;38806;51.554;5.704;2022-08-02T02:00:32;101854.34;;;10.63
50496;BMP280;38806;51.554;5.704;2022-08-02T02:02:36;101844.78;;;10.71
50496;BMP280;38806;51.554;5.704;2022-08-02T02:04:38;101883.94;;;10.63
50496;BMP280;38806;51.554;5.704;2022-08-02T02:06:42;101888.59;;;10.62
50496;BMP280;38806;51.554;5.704;2022-08-02T02:08:43;101883.19;;;10.62
50496;BMP280;38806;51.554;5.704;2022-08-02T02:10:44;101886.19;;;10.64
50496;BMP280;38806;51.554;5.704;2022-08-02T02:12:47;101904.13;;;10.58
50496;BMP280;38806;51.554;5.704;2022-08-02T02:14:48;101857.63;;;10.76
50496;BMP280;38806;51.554;5.704;2022-08-02T02:16:49;101942.13;;;10.60
50496;BMP280;38806;51.554;5.704;2022-08-02T02:18:51;101972.00;;;10.53
50496;BMP280;38806;51.554;5.704;2022-08-02T02:20:52;101995.00;;;10.45
50496;BMP280;38806;51.554;5.704;2022-08-02T02:22:53;101994.72;;;10.43
50496;BMP280;38806;51.554;5.704;2022-08-02T02:24:53;101978.56;;;10.43
50496;BMP280;38806;51.554;5.704;2022-08-02T02:26:53;101945.38;;;10.46
50496;BMP280;38806;51.554;5.704;2022-08-02T02:28:54;101976.75;;;10.40
50496;BMP280;38806;51.554;5.704;2022-08-02T02:31:04;101988.56;;;10.33
50496;BMP280;38806;51.554;5.704;2022-08-02T02:33:06;101993.31;;;10.29
50496;BMP280;38806;51.554;5.704;2022-08-02T02:35:08;102009.31;;;10.24
50496;BMP280;38806;51.554;5.704;2022-08-02T02:37:13;101984.31;;;10.23
50496;BMP280;38806;51.554;5.704;2022-08-02T02:39:17;101958.50;;;10.26
50496;BMP280;38806;51.554;5.704;2022-08-02T02:41:20;101936.81;;;10.29
50496;BMP280;38806;51.554;5.704;2022-08-02T02:43:21;101893.81;;;10.39
50496;BMP280;38806;51.554;5.704;2022-08-02T02:45:22;101893.69;;;10.33
50496;BMP280;38806;51.554;5.704;2022-08-02T02:47:23;101913.09;;;10.28
50496;BMP280;38806;51.554;5.704;2022-08-02T02:49:25;101899.47;;;10.31
50496;BMP280;38806;51.554;5.704;2022-08-02T02:51:26;101892.50;;;10.34
50496;BMP280;38806;51.554;5.704;2022-08-02T02:53:28;101912.03;;;10.25
50496;BMP280;38806;51.554;5.704;2022-08-02T02:55:29;101894.09;;;10.31
50496;BMP280;38806;51.554;5.704;2022-08-02T02:57:30;101901.28;;;10.25
50496;BMP280;38806;51.554;5.704;2022-08-02T02:59:33;101910.22;;;10.22
50496;BMP280;38806;51.554;5.704;2022-08-02T03:01:34;101902.91;;;10.23
50496;BMP280;38806;51.554;5.704;2022-08-02T03:03:36;101906.03;;;10.21
50496;BMP280;38806;51.554;5.704;2022-08-02T03:05:36;101871.53;;;10.29
50496;BMP280;38806;51.554;5.704;2022-08-02T03:07:37;101844.38;;;10.27
50496;BMP280;38806;51.554;5.704;2022-08-02T03:09:38;101852.44;;;10.18
50496;BMP280;38806;51.554;5.704;2022-08-02T03:11:39;101853.94;;;10.19
50496;BMP280;38806;51.554;5.704;2022-08-02T03:13:39;101846.00;;;10.15
50496;BMP280;38806;51.554;5.704;2022-08-02T03:15:40;101859.59;;;10.12
50496;BMP280;38806;51.554;5.704;2022-08-02T03:17:43;101854.06;;;10.15
50496;BMP280;38806;51.554;5.704;2022-08-02T03:19:44;101828.06;;;10.21
50496;BMP280;38806;51.554;5.704;2022-08-02T03:21:46;101803.28;;;10.26
50496;BMP280;38806;51.554;5.704;2022-08-02T03:23:47;101806.53;;;10.21
50496;BMP280;38806;51.554;5.704;2022-08-02T03:25:48;101804.03;;;10.18
50496;BMP280;38806;51.554;5.704;2022-08-02T03:27:48;101805.22;;;10.17
50496;BMP280;38806;51.554;5.704;2022-08-02T03:29:48;101819.28;;;10.12
50496;BMP280;38806;51.554;5.704;2022-08-02T03:31:49;101801.47;;;10.14
50496;BMP280;38806;51.554;5.704;2022-08-02T03:33:50;101830.63;;;10.07
50496;BMP280;38806;51.554;5.704;2022-08-02T03:35:52;101838.69;;;10.07
50496;BMP280;38806;51.554;5.704;2022-08-02T03:37:54;101839.72;;;10.09
50496;BMP280;38806;51.554;5.704;2022-08-02T03:39:55;101827.78;;;10.10
50496;BMP280;38806;51.554;5.704;2022-08-02T03:41:56;101826.59;;;10.11
50496;BMP280;38806;51.554;5.704;2022-08-02T03:43:58;101790.13;;;10.19
50496;BMP280;38806;51.554;5.704;2022-08-02T03:46:00;101758.88;;;10.22
50496;BMP280;38806;51.554;5.704;2022-08-02T03:48:02;101747.69;;;10.23
50496;BMP280;38806;51.554;5.704;2022-08-02T03:50:03;101680.59;;;10.38
50496;BMP280;38806;51.554;5.704;2022-08-02T03:52:05;101666.88;;;10.36
50496;BMP280;38806;51.554;5.704;2022-08-02T03:54:05;101624.25;;;10.44
50496;BMP280;38806;51.554;5.704;2022-08-02T03:56:06;101631.72;;;10.40
50496;BMP280;38806;51.554;5.704;2022-08-02T03:58:07;101650.13;;;10.32
50496;BMP280;38806;51.554;5.704;2022-08-02T04:00:09;101665.09;;;10.33
50496;BMP280;38806;51.554;5.704;2022-08-02T04:02:11;101688.22;;;10.30
50496;BMP280;38806;51.554;5.704;2022-08-02T04:04:11;101711.69;;;10.30
50496;BMP280;38806;51.554;5.704;2022-08-02T04:06:11;101690.31;;;10.35
50496;BMP280;38806;51.554;5.704;2022-08-02T04:08:12;101684.19;;;10.35
50496;BMP280;38806;51.554;5.704;2022-08-02T04:10:12;101686.44;;;10.37
50496;BMP280;38806;51.554;5.704;2022-08-02T04:12:12;101689.41;;;10.39
50496;BMP280;38806;51.554;5.704;2022-08-02T04:14:13;101698.22;;;10.39
50496;BMP280;38806;51.554;5.704;2022-08-02T04:16:19;101655.16;;;10.48
50496;BMP280;38806;51.554;5.704;2022-08-02T04:18:21;101618.31;;;10.63
50496;BMP280;38806;51.554;5.704;2022-08-02T04:20:27;101595.09;;;10.75
50496;BMP280;38806;51.554;5.704;2022-08-02T04:22:33;101567.69;;;10.86
50496;BMP280;38806;51.554;5.704;2022-08-02T04:24:38;101552.78;;;10.99
50496;BMP280;38806;51.554;5.704;2022-08-02T04:26:41;101544.81;;;11.05
50496;BMP280;38806;51.554;5.704;2022-08-02T04:28:43;101555.41;;;11.09
50496;BMP280;38806;51.554;5.704;2022-08-02T04:30:48;101539.13;;;11.18
50496;BMP280;38806;51.554;5.704;2022-08-02T04:32:49;101546.00;;;11.19
50496;BMP280;38806;51.554;5.704;2022-08-02T04:34:50;101536.13;;;11.25
50496;BMP280;38806;51.554;5.704;2022-08-02T04:36:51;101528.88;;;11.31
50496;BMP280;38806;51.554;5.704;2022-08-02T04:38:51;101520.44;;;11.38
50496;BMP280;38806;51.554;5.704;2022-08-02T04:40:53;101492.00;;;11.52
50496;BMP280;38806;51.554;5.704;2022-08-02T04:42:54;101502.41;;;11.59
50496;BMP280;38806;51.554;5.704;2022-08-02T04:44:54;101498.59;;;11.65
50496;BMP280;38806;51.554;5.704;2022-08-02T04:46:55;101521.91;;;11.68
50496;BMP280;38806;51.554;5.704;2022-08-02T04:48:57;101534.91;;;11.70
50496;BMP280;38806;51.554;5.704;2022-08-02T04:50:57;101535.47;;;11.74
50496;BMP280;38806;51.554;5.704;2022-08-02T04:52:57;101566.97;;;11.68
50496;BMP280;38806;51.554;5.704;2022-08-02T04:54:58;101578.22;;;11.66
50496;BMP280;38806;51.554;5.704;2022-08-02T04:56:58;101586.47;;;11.63
50496;BMP280;38806;51.554;5.704;2022-08-02T04:58:58;101589.91;;;11.63
50496;BMP280;38806;51.554;5.704;2022-08-02T05:00:59;101589.16;;;11.63
50496;BMP280;38806;51.554;5.704;2022-08-02T05:02:59;101611.66;;;11.60
50496;BMP280;38806;51.554;5.704;2022-08-02T05:05:00;101597.91;;;11.58
50496;BMP280;38806;51.554;5.704;2022-08-02T05:07:00;101598.84;;;11.55
50496;BMP280;38806;51.554;5.704;2022-08-02T05:09:00;101578.75;;;11.56
50496;BMP280;38806;51.554;5.704;2022-08-02T05:11:01;101549.22;;;11.61
50496;BMP280;38806;51.554;5.704;2022-08-02T05:13:03;101527.47;;;11.65
50496;BMP280;38806;51.554;5.704;2022-08-02T05:15:04;101503.31;;;11.71
50496;BMP280;38806;51.554;5.704;2022-08-02T05:17:04;101484.06;;;11.78
50496;BMP280;38806;51.554;5.704;2022-08-02T05:19:04;101418.72;;;12.03
50496;BMP280;38806;51.554;5.704;2022-08-02T05:21:05;101462.53;;;11.98
50496;BMP280;38806;51.554;5.704;2022-08-02T05:23:05;101408.06;;;12.14
50496;BMP280;38806;51.554;5.704;2022-08-02T05:25:06;101384.47;;;12.29
50496;BMP280;38806;51.554;5.704;2022-08-02T05:27:06;101374.78;;;12.43
50496;BMP280;38806;51.554;5.704;2022-08-02T05:29:06;101438.50;;;12.35
50496;BMP280;38806;51.554;5.704;2022-08-02T05:31:07;101301.53;;;12.82
50496;BMP280;38806;51.554;5.704;2022-08-02T05:33:07;101310.69;;;12.95
50496;BMP280;38806;51.554;5.704;2022-08-02T05:35:07;101292.91;;;13.15
50496;BMP280;38806;51.554;5.704;2022-08-02T05:37:08;101357.19;;;13.11
50496;BMP280;38806;51.554;5.704;2022-08-02T05:39:08;101294.00;;;13.40
50496;BMP280;38806;51.554;5.704;2022-08-02T05:41:08;101407.09;;;13.15
50496;BMP280;38806;51.554;5.704;2022-08-02T05:43:13;101361.72;;;13.30
50496;BMP280;38806;51.554;5.704;2022-08-02T05:45:13;101402.72;;;13.23
50496;BMP280;38806;51.554;5.704;2022-08-02T05:47:13;101320.06;;;13.48
50496;BMP280;38806;51.554;5.704;2022-08-02T05:49:14;101353.47;;;13.45
50496;BMP280;38806;51.554;5.704;2022-08-02T05:51:41;101332.09;;;13.47
50496;BMP280;38806;51.554;5.704;2022-08-02T05:53:49;101266.81;;;13.65
50496;BMP280;38806;51.554;5.704;2022-08-02T05:55:58;101247.44;;;13.84
50496;BMP280;38806;51.554;5.704;2022-08-02T05:58:23;101214.78;;;13.98
50496;BMP280;38806;51.554;5.704;2022-08-02T06:00:29;101153.25;;;14.32
50496;BMP280;38806;51.554;5.704;2022-08-02T06:02:56;101181.50;;;14.54
50496;BMP280;38806;51.554;5.704;2022-08-02T06:05:10;101208.00;;;14.89
50496;BMP280;38806;51.554;5.704;2022-08-02T06:07:11;101293.13;;;15.10
50496;BMP280;38806;51.554;5.704;2022-08-02T06:09:16;101364.06;;;15.08
50496;BMP280;38806;51.554;5.704;2022-08-02T06:11:21;101324.84;;;15.26
50496;BMP280;38806;51.554;5.704;2022-08-02T06:13:22;101348.72;;;15.39
50496;BMP280;38806;51.554;5.704;2022-08-02T06:15:24;101355.47;;;15.79
50496;BMP280;38806;51.554;5.704;2022-08-02T06:17:24;101457.28;;;15.74
50496;BMP280;38806;51.554;5.704;2022-08-02T06:19:25;101405.19;;;15.87
50496;BMP280;38806;51.554;5.704;2022-08-02T06:21:27;101416.31;;;15.89
50496;BMP280;38806;51.554;5.704;2022-08-02T06:23:28;101324.78;;;16.25
50496;BMP280;38806;51.554;5.704;2022-08-02T06:25:30;101416.41;;;16.13
50496;BMP280;38806;51.554;5.704;2022-08-02T06:27:30;101343.69;;;16.42
50496;BMP280;38806;51.554;5.704;2022-08-02T06:29:32;101341.31;;;16.81
50496;BMP280;38806;51.554;5.704;2022-08-02T06:31:33;101387.56;;;17.00
50496;BMP280;38806;51.554;5.704;2022-08-02T06:33:34;101464.81;;;17.10
50496;BMP280;38806;51.554;5.704;2022-08-02T06:35:44;101431.84;;;17.44
50496;BMP280;38806;51.554;5.704;2022-08-02T06:37:58;101496.47;;;17.56
50496;BMP280;38806;51.554;5.704;2022-08-02T06:40:22;101481.56;;;17.63
50496;BMP280;38806;51.554;5.704;2022-08-02T06:42:50;101503.84;;;17.80
50496;BMP280;38806;51.554;5.704;2022-08-02T06:44:50;101568.72;;;18.01
50496;BMP280;38806;51.554;5.704;2022-08-02T06:46:50;101587.03;;;18.00
50496;BMP280;38806;51.554;5.704;2022-08-02T06:48:50;101546.88;;;18.25
50496;BMP280;38806;51.554;5.704;2022-08-02T06:50:51;101554.28;;;18.24
50496;BMP280;38806;51.554;5.704;2022-08-02T06:52:51;101528.25;;;18.29
50496;BMP280;38806;51.554;5.704;2022-08-02T06:54:51;101509.97;;;18.24
50496;BMP280;38806;51.554;5.704;2022-08-02T06:56:51;101547.25;;;18.34
50496;BMP280;38806;51.554;5.704;2022-08-02T06:58:52;101494.16;;;18.41
50496;BMP280;38806;51.554;5.704;2022-08-02T07:00:52;101453.50;;;18.43
50496;BMP280;38806;51.554;5.704;2022-08-02T07:02:52;101423.28;;;18.60
50496;BMP280;38806;51.554;5.704;2022-08-02T07:04:53;101497.75;;;18.94
50496;BMP280;38806;51.554;5.704;2022-08-02T07:06:54;101516.50;;;18.85
50496;BMP280;38806;51.554;5.704;2022-08-02T07:08:56;101448.91;;;19.09
50496;BMP280;38806;51.554;5.704;2022-08-02T07:10:56;101531.22;;;19.08
50496;BMP280;38806;51.554;5.704;2022-08-02T07:12:58;101555.38;;;19.17
50496;BMP280;38806;51.554;5.704;2022-08-02T07:15:00;101576.88;;;19.34
50496;BMP280;38806;51.554;5.704;2022-08-02T07:17:00;101571.56;;;19.41
50496;BMP280;38806;51.554;5.704;2022-08-02T07:19:00;101503.75;;;19.72
50496;BMP280;38806;51.554;5.704;2022-08-02T07:21:01;101632.66;;;19.78
50496;BMP280;38806;51.554;5.704;2022-08-02T07:23:04;101630.34;;;19.82
50496;BMP280;38806;51.554;5.704;2022-08-02T07:25:04;101638.97;;;19.99
50496;BMP280;38806;51.554;5.704;2022-08-02T07:27:05;101673.72;;;20.12
50496;BMP280;38806;51.554;5.704;2022-08-02T07:29:05;101623.44;;;20.41
50496;BMP280;38806;51.554;5.704;2022-08-02T07:31:05;101717.50;;;20.33
50496;BMP280;38806;51.554;5.704;2022-08-02T07:33:06;101750.31;;;20.33
50496;BMP280;38806;51.554;5.704;2022-08-02T07:35:07;101708.31;;;20.56
50496;BMP280;38806;51.554;5.704;2022-08-02T07:37:07;101718.09;;;20.65
50496;BMP280;38806;51.554;5.704;2022-08-02T07:39:08;101850.88;;;20.60
50496;BMP280;38806;51.554;5.704;2022-08-02T07:41:08;101835.47;;;20.63
50496;BMP280;38806;51.554;5.704;2022-08-02T07:43:08;101857.59;;;20.59
50496;BMP280;38806;51.554;5.704;2022-08-02T07:45:10;101832.06;;;20.70
50496;BMP280;38806;51.554;5.704;2022-08-02T07:47:11;101826.19;;;20.66
50496;BMP280;38806;51.554;5.704;2022-08-02T07:49:11;101821.25;;;20.65
50496;BMP280;38806;51.554;5.704;2022-08-02T07:51:17;101802.06;;;20.78
50496;BMP280;38806;51.554;5.704;2022-08-02T07:53:18;101775.72;;;21.01
50496;BMP280;38806;51.554;5.704;2022-08-02T07:55:18;101786.75;;;21.09
50496;BMP280;38806;51.554;5.704;2022-08-02T07:57:18;101920.47;;;21.12
50496;BMP280;38806;51.554;5.704;2022-08-02T07:59:20;101830.16;;;21.25
50496;BMP280;38806;51.554;5.704;2022-08-02T08:01:20;101868.66;;;21.27
50496;BMP280;38806;51.554;5.704;2022-08-02T08:03:20;101894.44;;;21.32
50496;BMP280;38806;51.554;5.704;2022-08-02T08:05:21;101792.03;;;21.48
50496;BMP280;38806;51.554;5.704;2022-08-02T08:07:22;101889.91;;;21.68
50496;BMP280;38806;51.554;5.704;2022-08-02T08:09:23;101978.47;;;21.71
50496;BMP280;38806;51.554;5.704;2022-08-02T08:11:23;101860.84;;;21.86
50496;BMP280;38806;51.554;5.704;2022-08-02T08:13:24;101971.81;;;21.79
50496;BMP280;38806;51.554;5.704;2022-08-02T08:15:24;101928.69;;;22.22
50496;BMP280;38806;51.554;5.704;2022-08-02T08:17:24;101975.88;;;22.28
50496;BMP280;38806;51.554;5.704;2022-08-02T08:19:25;101984.91;;;22.64
50496;BMP280;38806;51.554;5.704;2022-08-02T08:21:26;102087.16;;;22.65
50496;BMP280;38806;51.554;5.704;2022-08-02T08:23:26;102051.16;;;22.96
50496;BMP280;38806;51.554;5.704;2022-08-02T08:25:27;102166.47;;;23.04
50496;BMP280;38806;51.554;5.704;2022-08-02T08:27:27;102098.38;;;23.31
50496;BMP280;38806;51.554;5.704;2022-08-02T08:29:27;101990.31;;;23.87
50496;BMP280;38806;51.554;5.704;2022-08-02T08:31:28;102083.44;;;24.06
50496;BMP280;38806;51.554;5.704;2022-08-02T08:33:28;102070.97;;;24.20
50496;BMP280;38806;51.554;5.704;2022-08-02T08:35:28;102078.28;;;24.86
50496;BMP280;38806;51.554;5.704;2022-08-02T08:37:35;102049.50;;;25.27
50496;BMP280;38806;51.554;5.704;2022-08-02T08:39:36;101987.88;;;26.14
50496;BMP280;38806;51.554;5.704;2022-08-02T08:41:37;102020.34;;;26.23
50496;BMP280;38806;51.554;5.704;2022-08-02T08:43:37;102101.81;;;26.24
50496;BMP280;38806;51.554;5.704;2022-08-02T08:45:37;102094.06;;;26.47
50496;BMP280;38806;51.554;5.704;2022-08-02T08:47:41;102004.63;;;26.67
50496;BMP280;38806;51.554;5.704;2022-08-02T08:49:46;101927.31;;;27.77
50496;BMP280;38806;51.554;5.704;2022-08-02T08:51:48;102086.59;;;27.09
50496;BMP280;38806;51.554;5.704;2022-08-02T08:53:52;101954.81;;;27.65
50496;BMP280;38806;51.554;5.704;2022-08-02T08:55:53;102113.97;;;27.32
50496;BMP280;38806;51.554;5.704;2022-08-02T08:57:57;101982.22;;;28.28
50496;BMP280;38806;51.554;5.704;2022-08-02T08:59:57;102035.53;;;28.29
50496;BMP280;38806;51.554;5.704;2022-08-02T09:01:59;101983.94;;;28.81
50496;BMP280;38806;51.554;5.704;2022-08-02T09:03:59;102090.66;;;27.98
50496;BMP280;38806;51.554;5.704;2022-08-02T09:06:00;102077.44;;;28.06
50496;BMP280;38806;51.554;5.704;2022-08-02T09:08:02;101962.88;;;28.09
50496;BMP280;38806;51.554;5.704;2022-08-02T09:10:31;101921.13;;;28.65
50496;BMP280;38806;51.554;5.704;2022-08-02T09:12:31;102044.72;;;28.41
50496;BMP280;38806;51.554;5.704;2022-08-02T09:14:31;102076.59;;;28.23
50496;BMP280;38806;51.554;5.704;2022-08-02T09:16:35;101838.88;;;29.50
50496;BMP280;38806;51.554;5.704;2022-08-02T09:18:37;102060.66;;;27.94
50496;BMP280;38806;51.554;5.704;2022-08-02T09:20:57;101900.22;;;29.14
50496;BMP280;38806;51.554;5.704;2022-08-02T09:23:08;102000.72;;;28.64
50496;BMP280;38806;51.554;5.704;2022-08-02T09:25:14;101941.38;;;29.17
50496;BMP280;38806;51.554;5.704;2022-08-02T09:27:18;102128.56;;;28.05
50496;BMP280;38806;51.554;5.704;2022-08-02T09:29:22;101967.78;;;28.59
50496;BMP280;38806;51.554;5.704;2022-08-02T09:31:22;102026.06;;;28.51
50496;BMP280;38806;51.554;5.704;2022-08-02T09:33:25;101922.63;;;29.27
50496;BMP280;38806;51.554;5.704;2022-08-02T09:35:36;101923.84;;;29.67
50496;BMP280;38806;51.554;5.704;2022-08-02T09:37:37;101972.47;;;30.01
50496;BMP280;38806;51.554;5.704;2022-08-02T09:39:43;101870.06;;;30.05
50496;BMP280;38806;51.554;5.704;2022-08-02T09:41:44;102106.78;;;28.96
50496;BMP280;38806;51.554;5.704;2022-08-02T09:43:45;102034.31;;;29.39
50496;BMP280;38806;51.554;5.704;2022-08-02T09:45:45;101906.25;;;30.07
50496;BMP280;38806;51.554;5.704;2022-08-02T09:47:48;102066.44;;;29.64
50496;BMP280;38806;51.554;5.704;2022-08-02T09:49:48;101971.28;;;30.04
50496;BMP280;38806;51.554;5.704;2022-08-02T09:51:51;102068.81;;;29.58
50496;BMP280;38806;51.554;5.704;2022-08-02T09:53:56;101842.47;;;30.76
50496;BMP280;38806;51.554;5.704;2022-08-02T09:55:56;102016.69;;;30.53
50496;BMP280;38806;51.554;5.704;2022-08-02T09:57:57;101918.69;;;31.45
50496;BMP280;38806;51.554;5.704;2022-08-02T09:59:57;101907.78;;;31.49
50496;BMP280;38806;51.554;5.704;2022-08-02T10:01:59;101962.53;;;30.75
50496;BMP280;38806;51.554;5.704;2022-08-02T10:04:05;102076.19;;;30.38
50496;BMP280;38806;51.554;5.704;2022-08-02T10:06:05;101832.81;;;31.51
50496;BMP280;38806;51.554;5.704;2022-08-02T10:08:06;102038.75;;;30.84
50496;BMP280;38806;51.554;5.704;2022-08-02T10:10:07;101938.22;;;31.22
50496;BMP280;38806;51.554;5.704;2022-08-02T10:12:08;102081.28;;;30.86
50496;BMP280;38806;51.554;5.704;2022-08-02T10:14:09;101970.47;;;31.27
50496;BMP280;38806;51.554;5.704;2022-08-02T10:16:11;102162.25;;;30.38
50496;BMP280;38806;51.554;5.704;2022-08-02T10:18:11;102237.59;;;30.23
50496;BMP280;38806;51.554;5.704;2022-08-02T10:20:11;102174.41;;;30.33
50496;BMP280;38806;51.554;5.704;2022-08-02T10:22:13;102132.09;;;30.44
50496;BMP280;38806;51.554;5.704;2022-08-02T10:24:18;102108.97;;;30.63
50496;BMP280;38806;51.554;5.704;2022-08-02T10:26:19;102027.09;;;31.68
50496;BMP280;38806;51.554;5.704;2022-08-02T10:28:26;102075.88;;;31.58
50496;BMP280;38806;51.554;5.704;2022-08-02T10:30:35;101942.66;;;32.01
50496;BMP280;38806;51.554;5.704;2022-08-02T10:32:39;102263.00;;;30.71
50496;BMP280;38806;51.554;5.704;2022-08-02T10:34:48;102047.31;;;31.57
50496;BMP280;38806;51.554;5.704;2022-08-02T10:36:50;102167.91;;;31.39
50496;BMP280;38806;51.554;5.704;2022-08-02T10:38:53;102013.56;;;32.00
50496;BMP280;38806;51.554;5.704;2022-08-02T10:40:55;102087.88;;;31.97
50496;BMP280;38806;51.554;5.704;2022-08-02T10:42:55;101985.03;;;32.38
50496;BMP280;38806;51.554;5.704;2022-08-02T10:45:08;101809.94;;;33.61
50496;BMP280;38806;51.554;5.704;2022-08-02T10:47:23;101926.44;;;33.18
50496;BMP280;38806;51.554;5.704;2022-08-02T10:49:24;101892.13;;;33.74
50496;BMP280;38806;51.554;5.704;2022-08-02T10:51:24;102034.94;;;32.87
50496;BMP280;38806;51.554;5.704;2022-08-02T10:53:28;101987.56;;;33.14
50496;BMP280;38806;51.554;5.704;2022-08-02T10:55:43;102096.66;;;32.67
50496;BMP280;38806;51.554;5.704;2022-08-02T10:57:44;101995.19;;;32.73
50496;BMP280;38806;51.554;5.704;2022-08-02T10:59:44;101983.97;;;32.71
50496;BMP280;38806;51.554;5.704;2022-08-02T11:01:44;102056.63;;;32.36
50496;BMP280;38806;51.554;5.704;2022-08-02T11:03:45;102089.25;;;31.96
50496;BMP280;38806;51.554;5.704;2022-08-02T11:06:02;102209.59;;;31.27
50496;BMP280;38806;51.554;5.704;2022-08-02T11:08:23;102124.44;;;31.92
50496;BMP280;38806;51.554;5.704;2022-08-02T11:10:31;102063.03;;;32.13
50496;BMP280;38806;51.554;5.704;2022-08-02T11:12:31;102053.00;;;32.33
50496;BMP280;38806;51.554;5.704;2022-08-02T11:14:34;102115.91;;;32.13
50496;BMP280;38806;51.554;5.704;2022-08-02T11:21:25;101940.09;;;32.71
50496;BMP280;38806;51.554;5.704;2022-08-02T11:23:34;101870.78;;;33.65
50496;BMP280;38806;51.554;5.704;2022-08-02T11:25:37;101856.28;;;34.00
50496;BMP280;38806;51.554;5.704;2022-08-02T11:27:38;101943.41;;;33.67
50496;BMP280;38806;51.554;5.704;2022-08-02T11:29:40;101972.72;;;33.52
50496;BMP280;38806;51.554;5.704;2022-08-02T11:31:43;101906.53;;;34.00
50496;BMP280;38806;51.554;5.704;2022-08-02T11:33:43;102027.53;;;33.32
50496;BMP280;38806;51.554;5.704;2022-08-02T11:35:44;101954.34;;;33.47
50496;BMP280;38806;51.554;5.704;2022-08-02T11:37:44;101941.63;;;33.15
50496;BMP280;38806;51.554;5.704;2022-08-02T11:39:49;101940.16;;;33.57
50496;BMP280;38806;51.554;5.704;2022-08-02T11:41:59;101913.09;;;33.75
50496;BMP280;38806;51.554;5.704;2022-08-02T11:44:00;101869.88;;;34.23
50496;BMP280;38806;51.554;5.704;2022-08-02T11:46:10;101837.16;;;34.41
50496;BMP280;38806;51.554;5.704;2022-08-02T11:48:10;102029.03;;;33.62